sensor_id;sensor_type;location;lat;lon;timestamp;temperature;humidity
54960;DHT22;40860;51.710;8.736;2023-06-24T00:02:35;16.00;99.90
54960;DHT22;40860;51.710;8.736;2023-06-24T00:06:42;16.00;99.90
54960;DHT22;40860;51.710;8.736;2023-06-24T00:10:46;15.90;99.90
54960;DHT22;40860;51.710;8.736;2023-06-24T00:14:50;15.80;99.90
54960;DHT22;40860;51.710;8.736;2023-06-24T00:18:54;15.80;99.90
54960;DHT22;40860;51.710;8.736;2023-06-24T00:23:00;15.80;99.90
54960;DHT22;40860;51.710;8.736;2023-06-24T00:27:05;15.80;99.90
54960;DHT22;40860;51.710;8.736;2023-06-24T00:31:14;15.70;99.90
54960;DHT22;40860;51.710;8.736;2023-06-24T00:35:17;15.60;99.90
54960;DHT22;40860;51.710;8.736;2023-06-24T00:39:21;15.60;99.90
54960;DHT22;40860;51.710;8.736;2023-06-24T00:43:25;15.50;99.90
54960;DHT22;40860;51.710;8.736;2023-06-24T00:47:30;15.50;99.90
54960;DHT22;40860;51.710;8.736;2023-06-24T00:51:36;15.50;99.90
54960;DHT22;40860;51.710;8.736;2023-06-24T00:55:44;15.50;99.90
54960;DHT22;40860;51.710;8.736;2023-06-24T00:59:50;15.40;99.90
54960;DHT22;40860;51.710;8.736;2023-06-24T01:03:54;15.40;99.90
54960;DHT22;40860;51.710;8.736;2023-06-24T01:07:58;15.30;99.90
54960;DHT22;40860;51.710;8.736;2023-06-24T01:12:01;15.30;99.90
54960;DHT22;40860;51.710;8.736;2023-06-24T01:16:12;15.30;99.90
54960;DHT22;40860;51.710;8.736;2023-06-24T01:20:25;15.20;99.90
54960;DHT22;40860;51.710;8.736;2023-06-24T01:24:47;15.10;99.90
54960;DHT22;40860;51.710;8.736;2023-06-24T01:33:52;15.10;99.90
54960;DHT22;40860;51.710;8.736;2023-06-24T01:37:59;15.10;99.90
54960;DHT22;40860;51.710;8.736;2023-06-24T01:42:08;15.10;99.90
54960;DHT22;40860;51.710;8.736;2023-06-24T01:46:15;15.00;99.90
54960;DHT22;40860;51.710;8.736;2023-06-24T01:50:22;15.00;99.90
54960;DHT22;40860;51.710;8.736;2023-06-24T01:54:26;14.90;99.90
54960;DHT22;40860;51.710;8.736;2023-06-24T01:58:32;14.80;99.90
54960;DHT22;40860;51.710;8.736;2023-06-24T02:02:37;14.80;99.90
54960;DHT22;40860;51.710;8.736;2023-06-24T02:06:45;14.80;99.90
54960;DHT22;40860;51.710;8.736;2023-06-24T02:10:50;14.80;99.90
54960;DHT22;40860;51.710;8.736;2023-06-24T02:14:54;14.70;99.90
54960;DHT22;40860;51.710;8.736;2023-06-24T02:18:58;14.70;99.90
54960;DHT22;40860;51.710;8.736;2023-06-24T02:23:07;14.70;99.90
54960;DHT22;40860;51.710;8.736;2023-06-24T02:27:11;14.70;99.90
54960;DHT22;40860;51.710;8.736;2023-06-24T02:31:23;14.60;99.90
54960;DHT22;40860;51.710;8.736;2023-06-24T02:35:27;14.60;99.90
54960;DHT22;40860;51.710;8.736;2023-06-24T02:39:32;14.60;99.90
54960;DHT22;40860;51.710;8.736;2023-06-24T02:43:35;14.60;99.90
54960;DHT22;40860;51.710;8.736;2023-06-24T02:47:43;14.50;99.90
54960;DHT22;40860;51.710;8.736;2023-06-24T02:51:48;14.50;99.90
54960;DHT22;40860;51.710;8.736;2023-06-24T02:55:54;14.50;99.90
54960;DHT22;40860;51.710;8.736;2023-06-24T02:59:58;14.40;99.90
54960;DHT22;40860;51.710;8.736;2023-06-24T03:04:14;14.40;99.90
54960;DHT22;40860;51.710;8.736;2023-06-24T03:08:17;14.40;99.90
54960;DHT22;40860;51.710;8.736;2023-06-24T03:12:24;14.40;99.90
54960;DHT22;40860;51.710;8.736;2023-06-24T03:16:27;14.40;99.90
54960;DHT22;40860;51.710;8.736;2023-06-24T03:20:41;14.30;99.90
54960;DHT22;40860;51.710;8.736;2023-06-24T03:24:50;14.30;99.90
54960;DHT22;40860;51.710;8.736;2023-06-24T03:28:54;14.30;99.90
54960;DHT22;40860;51.710;8.736;2023-06-24T03:32:57;14.30;99.90
54960;DHT22;40860;51.710;8.736;2023-06-24T03:37:00;14.30;99.90
54960;DHT22;40860;51.710;8.736;2023-06-24T03:41:07;14.30;99.90
54960;DHT22;40860;51.710;8.736;2023-06-24T03:45:11;14.30;99.90
54960;DHT22;40860;51.710;8.736;2023-06-24T03:49:14;14.40;99.90
54960;DHT22;40860;51.710;8.736;2023-06-24T03:53:17;14.40;99.90
54960;DHT22;40860;51.710;8.736;2023-06-24T03:57:20;14.40;99.90
54960;DHT22;40860;51.710;8.736;2023-06-24T04:01:25;14.40;99.90
54960;DHT22;40860;51.710;8.736;2023-06-24T04:05:29;14.40;99.90
54960;DHT22;40860;51.710;8.736;2023-06-24T04:09:33;14.50;99.90
54960;DHT22;40860;51.710;8.736;2023-06-24T04:13:36;14.50;99.90
54960;DHT22;40860;51.710;8.736;2023-06-24T04:17:40;14.60;99.90
54960;DHT22;40860;51.710;8.736;2023-06-24T04:21:44;14.70;99.90
54960;DHT22;40860;51.710;8.736;2023-06-24T04:25:47;14.80;99.90
54960;DHT22;40860;51.710;8.736;2023-06-24T04:29:49;14.80;99.90
54960;DHT22;40860;51.710;8.736;2023-06-24T04:33:54;14.90;99.90
54960;DHT22;40860;51.710;8.736;2023-06-24T04:37:57;15.00;99.90
54960;DHT22;40860;51.710;8.736;2023-06-24T04:42:00;15.00;99.90
54960;DHT22;40860;51.710;8.736;2023-06-24T04:46:02;15.10;99.90
54960;DHT22;40860;51.710;8.736;2023-06-24T04:50:07;15.20;99.90
54960;DHT22;40860;51.710;8.736;2023-06-24T04:54:12;15.30;99.90
54960;DHT22;40860;51.710;8.736;2023-06-24T04:58:15;15.40;99.90
54960;DHT22;40860;51.710;8.736;2023-06-24T05:02:17;15.50;99.90
54960;DHT22;40860;51.710;8.736;2023-06-24T05:06:21;15.60;99.90
54960;DHT22;40860;51.710;8.736;2023-06-24T05:10:24;15.70;99.90
54960;DHT22;40860;51.710;8.736;2023-06-24T05:14:27;15.70;99.90
54960;DHT22;40860;51.710;8.736;2023-06-24T05:18:30;15.90;99.90
54960;DHT22;40860;51.710;8.736;2023-06-24T05:22:35;16.00;99.90
54960;DHT22;40860;51.710;8.736;2023-06-24T05:26:38;16.10;99.90
54960;DHT22;40860;51.710;8.736;2023-06-24T05:30:41;16.20;99.90
54960;DHT22;40860;51.710;8.736;2023-06-24T05:34:44;16.40;99.90
54960;DHT22;40860;51.710;8.736;2023-06-24T05:38:48;16.50;99.90
54960;DHT22;40860;51.710;8.736;2023-06-24T05:42:51;16.60;99.90
54960;DHT22;40860;51.710;8.736;2023-06-24T05:46:54;16.70;99.90
54960;DHT22;40860;51.710;8.736;2023-06-24T05:50:57;16.80;99.90
54960;DHT22;40860;51.710;8.736;2023-06-24T05:55:01;17.00;99.90
54960;DHT22;40860;51.710;8.736;2023-06-24T05:59:04;17.10;99.90
54960;DHT22;40860;51.710;8.736;2023-06-24T06:03:07;17.30;99.90
54960;DHT22;40860;51.710;8.736;2023-06-24T06:07:11;17.40;99.90
54960;DHT22;40860;51.710;8.736;2023-06-24T06:11:15;17.50;99.90
54960;DHT22;40860;51.710;8.736;2023-06-24T06:15:18;17.60;99.90
54960;DHT22;40860;51.710;8.736;2023-06-24T06:19:20;17.80;99.90
54960;DHT22;40860;51.710;8.736;2023-06-24T06:23:23;17.90;99.90
54960;DHT22;40860;51.710;8.736;2023-06-24T06:27:28;18.00;99.90
54960;DHT22;40860;51.710;8.736;2023-06-24T06:31:31;18.20;99.90
54960;DHT22;40860;51.710;8.736;2023-06-24T06:35:34;18.40;99.80
54960;DHT22;40860;51.710;8.736;2023-06-24T06:39:37;18.50;98.80
54960;DHT22;40860;51.710;8.736;2023-06-24T06:43:41;18.70;98.20
54960;DHT22;40860;51.710;8.736;2023-06-24T06:47:44;19.10;98.30
54960;DHT22;40860;51.710;8.736;2023-06-24T06:51:47;19.50;96.60
54960;DHT22;40860;51.710;8.736;2023-06-24T06:55:50;19.50;96.40
54960;DHT22;40860;51.710;8.736;2023-06-24T06:59:54;19.50;96.00
54960;DHT22;40860;51.710;8.736;2023-06-24T07:03:56;19.50;95.90
54960;DHT22;40860;51.710;8.736;2023-06-24T07:07:59;19.60;95.80
54960;DHT22;40860;51.710;8.736;2023-06-24T07:12:03;19.70;95.80
54960;DHT22;40860;51.710;8.736;2023-06-24T07:16:07;19.80;95.80
54960;DHT22;40860;51.710;8.736;2023-06-24T07:20:10;20.00;95.70
54960;DHT22;40860;51.710;8.736;2023-06-24T07:24:13;20.40;94.80
54960;DHT22;40860;51.710;8.736;2023-06-24T07:28:16;20.60;94.80
54960;DHT22;40860;51.710;8.736;2023-06-24T07:32:20;23.50;99.20
54960;DHT22;40860;51.710;8.736;2023-06-24T07:36:23;25.80;84.80
54960;DHT22;40860;51.710;8.736;2023-06-24T07:40:26;27.20;75.40
54960;DHT22;40860;51.710;8.736;2023-06-24T07:44:29;28.30;67.00
54960;DHT22;40860;51.710;8.736;2023-06-24T07:48:33;28.70;63.60
54960;DHT22;40860;51.710;8.736;2023-06-24T07:52:36;29.00;59.10
54960;DHT22;40860;51.710;8.736;2023-06-24T07:56:38;29.30;58.00
54960;DHT22;40860;51.710;8.736;2023-06-24T08:00:41;28.90;56.20
54960;DHT22;40860;51.710;8.736;2023-06-24T08:04:46;28.30;57.90
54960;DHT22;40860;51.710;8.736;2023-06-24T08:08:49;28.60;58.50
54960;DHT22;40860;51.710;8.736;2023-06-24T08:12:52;28.30;55.70
54960;DHT22;40860;51.710;8.736;2023-06-24T08:16:55;27.70;59.20
54960;DHT22;40860;51.710;8.736;2023-06-24T08:20:59;27.60;57.80
54960;DHT22;40860;51.710;8.736;2023-06-24T08:25:04;27.50;57.60
54960;DHT22;40860;51.710;8.736;2023-06-24T08:29:06;27.10;59.60
54960;DHT22;40860;51.710;8.736;2023-06-24T08:33:11;26.80;58.30
54960;DHT22;40860;51.710;8.736;2023-06-24T08:37:15;26.70;57.90
54960;DHT22;40860;51.710;8.736;2023-06-24T08:41:18;26.70;58.30
54960;DHT22;40860;51.710;8.736;2023-06-24T08:45:21;27.00;58.20
54960;DHT22;40860;51.710;8.736;2023-06-24T08:49:28;27.00;59.10
54960;DHT22;40860;51.710;8.736;2023-06-24T08:53:34;26.80;59.30
54960;DHT22;40860;51.710;8.736;2023-06-24T08:57:38;26.90;59.40
54960;DHT22;40860;51.710;8.736;2023-06-24T09:01:41;27.00;59.00
54960;DHT22;40860;51.710;8.736;2023-06-24T09:05:44;26.90;58.30
54960;DHT22;40860;51.710;8.736;2023-06-24T09:09:48;27.00;59.60
54960;DHT22;40860;51.710;8.736;2023-06-24T09:13:54;27.30;59.00
54960;DHT22;40860;51.710;8.736;2023-06-24T09:17:58;27.50;59.40
54960;DHT22;40860;51.710;8.736;2023-06-24T09:22:03;27.40;57.60
54960;DHT22;40860;51.710;8.736;2023-06-24T09:26:11;27.60;56.60
54960;DHT22;40860;51.710;8.736;2023-06-24T09:30:17;27.70;56.80
54960;DHT22;40860;51.710;8.736;2023-06-24T09:34:22;27.70;55.50
54960;DHT22;40860;51.710;8.736;2023-06-24T09:38:32;27.90;58.10
54960;DHT22;40860;51.710;8.736;2023-06-24T09:42:36;27.90;55.90
54960;DHT22;40860;51.710;8.736;2023-06-24T09:46:41;27.70;56.60
54960;DHT22;40860;51.710;8.736;2023-06-24T09:50:45;27.90;56.50
54960;DHT22;40860;51.710;8.736;2023-06-24T09:54:51;27.90;57.00
54960;DHT22;40860;51.710;8.736;2023-06-24T09:58:55;28.00;57.10
54960;DHT22;40860;51.710;8.736;2023-06-24T10:02:59;27.90;58.00
54960;DHT22;40860;51.710;8.736;2023-06-24T10:07:03;28.10;57.70
54960;DHT22;40860;51.710;8.736;2023-06-24T10:11:06;27.80;57.50
54960;DHT22;40860;51.710;8.736;2023-06-24T10:15:10;28.10;57.00
54960;DHT22;40860;51.710;8.736;2023-06-24T10:19:19;28.50;57.20
54960;DHT22;40860;51.710;8.736;2023-06-24T10:23:30;28.50;57.00
54960;DHT22;40860;51.710;8.736;2023-06-24T10:27:39;28.40;55.90
54960;DHT22;40860;51.710;8.736;2023-06-24T10:31:53;28.00;55.30
54960;DHT22;40860;51.710;8.736;2023-06-24T10:35:57;28.30;56.50
54960;DHT22;40860;51.710;8.736;2023-06-24T10:40:01;27.70;56.70
54960;DHT22;40860;51.710;8.736;2023-06-24T10:44:15;27.50;57.70
54960;DHT22;40860;51.710;8.736;2023-06-24T10:48:20;27.60;57.20
54960;DHT22;40860;51.710;8.736;2023-06-24T10:52:23;28.00;56.60
54960;DHT22;40860;51.710;8.736;2023-06-24T10:56:30;28.30;56.00
54960;DHT22;40860;51.710;8.736;2023-06-24T11:00:33;28.40;55.10
54960;DHT22;40860;51.710;8.736;2023-06-24T11:04:49;28.30;56.10
54960;DHT22;40860;51.710;8.736;2023-06-24T11:08:52;28.50;56.50
54960;DHT22;40860;51.710;8.736;2023-06-24T11:12:55;28.70;54.90
54960;DHT22;40860;51.710;8.736;2023-06-24T11:17:01;28.70;54.90
54960;DHT22;40860;51.710;8.736;2023-06-24T11:21:08;28.50;54.70
54960;DHT22;40860;51.710;8.736;2023-06-24T11:25:14;28.70;54.70
54960;DHT22;40860;51.710;8.736;2023-06-24T11:29:18;28.40;54.20
54960;DHT22;40860;51.710;8.736;2023-06-24T11:33:27;28.60;55.00
54960;DHT22;40860;51.710;8.736;2023-06-24T11:37:32;28.60;55.40
54960;DHT22;40860;51.710;8.736;2023-06-24T11:41:37;28.30;55.60
54960;DHT22;40860;51.710;8.736;2023-06-24T11:45:40;28.60;54.40
54960;DHT22;40860;51.710;8.736;2023-06-24T11:49:48;28.80;55.10
54960;DHT22;40860;51.710;8.736;2023-06-24T11:53:52;29.00;54.00
54960;DHT22;40860;51.710;8.736;2023-06-24T11:57:56;29.00;54.30
54960;DHT22;40860;51.710;8.736;2023-06-24T12:01:59;29.40;55.20
54960;DHT22;40860;51.710;8.736;2023-06-24T12:06:05;29.60;52.50
54960;DHT22;40860;51.710;8.736;2023-06-24T12:10:09;29.70;50.70
54960;DHT22;40860;51.710;8.736;2023-06-24T12:14:12;29.60;52.00
54960;DHT22;40860;51.710;8.736;2023-06-24T12:18:15;29.70;52.80
54960;DHT22;40860;51.710;8.736;2023-06-24T12:22:18;29.80;52.30
54960;DHT22;40860;51.710;8.736;2023-06-24T12:26:23;30.10;50.90
54960;DHT22;40860;51.710;8.736;2023-06-24T12:30:26;30.40;50.10
54960;DHT22;40860;51.710;8.736;2023-06-24T12:34:30;30.50;48.90
54960;DHT22;40860;51.710;8.736;2023-06-24T12:38:33;30.30;48.90
54960;DHT22;40860;51.710;8.736;2023-06-24T12:42:39;30.00;48.20
54960;DHT22;40860;51.710;8.736;2023-06-24T12:46:42;30.20;49.90
54960;DHT22;40860;51.710;8.736;2023-06-24T12:50:45;30.10;48.70
54960;DHT22;40860;51.710;8.736;2023-06-24T12:54:49;29.70;49.00
54960;DHT22;40860;51.710;8.736;2023-06-24T12:58:53;29.70;50.30
54960;DHT22;40860;51.710;8.736;2023-06-24T13:02:56;30.20;49.10
54960;DHT22;40860;51.710;8.736;2023-06-24T13:06:58;30.40;48.80
54960;DHT22;40860;51.710;8.736;2023-06-24T13:11:01;30.30;47.20
54960;DHT22;40860;51.710;8.736;2023-06-24T13:15:06;29.90;46.80
54960;DHT22;40860;51.710;8.736;2023-06-24T13:19:11;30.50;48.50
54960;DHT22;40860;51.710;8.736;2023-06-24T13:23:17;31.10;48.10
54960;DHT22;40860;51.710;8.736;2023-06-24T13:27:20;31.00;45.70
54960;DHT22;40860;51.710;8.736;2023-06-24T13:31:24;31.30;46.30
54960;DHT22;40860;51.710;8.736;2023-06-24T13:35:27;30.50;46.80
54960;DHT22;40860;51.710;8.736;2023-06-24T13:39:30;30.70;46.70
54960;DHT22;40860;51.710;8.736;2023-06-24T13:43:34;31.10;46.30
54960;DHT22;40860;51.710;8.736;2023-06-24T13:47:38;30.70;46.30
54960;DHT22;40860;51.710;8.736;2023-06-24T13:51:41;30.30;48.20
54960;DHT22;40860;51.710;8.736;2023-06-24T13:55:43;30.60;47.80
54960;DHT22;40860;51.710;8.736;2023-06-24T13:59:47;31.00;47.70
54960;DHT22;40860;51.710;8.736;2023-06-24T14:03:52;31.60;46.00
54960;DHT22;40860;51.710;8.736;2023-06-24T14:07:55;31.80;46.60
54960;DHT22;40860;51.710;8.736;2023-06-24T14:11:58;32.30;45.10
54960;DHT22;40860;51.710;8.736;2023-06-24T14:16:01;32.00;45.60
54960;DHT22;40860;51.710;8.736;2023-06-24T14:20:07;31.80;46.20
54960;DHT22;40860;51.710;8.736;2023-06-24T14:24:10;31.90;46.60
54960;DHT22;40860;51.710;8.736;2023-06-24T14:28:17;31.50;47.90
54960;DHT22;40860;51.710;8.736;2023-06-24T14:32:20;31.80;47.10
54960;DHT22;40860;51.710;8.736;2023-06-24T14:36:24;32.00;46.30
54960;DHT22;40860;51.710;8.736;2023-06-24T14:40:27;32.10;46.80
54960;DHT22;40860;51.710;8.736;2023-06-24T14:44:31;32.30;46.80
54960;DHT22;40860;51.710;8.736;2023-06-24T14:48:33;32.30;45.90
54960;DHT22;40860;51.710;8.736;2023-06-24T14:52:39;32.60;45.80
54960;DHT22;40860;51.710;8.736;2023-06-24T14:56:42;32.50;46.30
54960;DHT22;40860;51.710;8.736;2023-06-24T15:00:45;32.50;45.20
54960;DHT22;40860;51.710;8.736;2023-06-24T15:04:48;32.80;45.60
54960;DHT22;40860;51.710;8.736;2023-06-24T15:08:52;32.70;46.90
54960;DHT22;40860;51.710;8.736;2023-06-24T15:12:55;32.80;47.60
54960;DHT22;40860;51.710;8.736;2023-06-24T15:16:58;32.90;45.80
54960;DHT22;40860;51.710;8.736;2023-06-24T15:21:00;32.50;45.30
54960;DHT22;40860;51.710;8.736;2023-06-24T15:25:07;32.70;45.50
54960;DHT22;40860;51.710;8.736;2023-06-24T15:29:10;32.90;45.20
54960;DHT22;40860;51.710;8.736;2023-06-24T15:33:14;32.90;45.10
54960;DHT22;40860;51.710;8.736;2023-06-24T15:37:17;32.80;45.00
54960;DHT22;40860;51.710;8.736;2023-06-24T15:41:21;32.80;44.30
54960;DHT22;40860;51.710;8.736;2023-06-24T15:45:24;32.20;44.80
54960;DHT22;40860;51.710;8.736;2023-06-24T15:49:27;32.30;45.40
54960;DHT22;40860;51.710;8.736;2023-06-24T15:53:30;32.50;45.30
54960;DHT22;40860;51.710;8.736;2023-06-24T15:57:36;32.50;46.10
54960;DHT22;40860;51.710;8.736;2023-06-24T16:01:39;32.30;46.30
54960;DHT22;40860;51.710;8.736;2023-06-24T16:05:46;32.40;46.40
54960;DHT22;40860;51.710;8.736;2023-06-24T16:09:53;32.20;45.60
54960;DHT22;40860;51.710;8.736;2023-06-24T16:13:57;32.00;46.20
54960;DHT22;40860;51.710;8.736;2023-06-24T16:18:00;31.60;45.10
54960;DHT22;40860;51.710;8.736;2023-06-24T16:22:03;31.50;46.50
54960;DHT22;40860;51.710;8.736;2023-06-24T16:26:06;31.70;45.50
54960;DHT22;40860;51.710;8.736;2023-06-24T16:30:11;31.70;46.40
54960;DHT22;40860;51.710;8.736;2023-06-24T16:34:14;31.00;47.20
54960;DHT22;40860;51.710;8.736;2023-06-24T16:38:25;31.20;46.80
54960;DHT22;40860;51.710;8.736;2023-06-24T16:42:27;31.30;45.20
54960;DHT22;40860;51.710;8.736;2023-06-24T16:46:31;31.40;45.90
54960;DHT22;40860;51.710;8.736;2023-06-24T16:50:34;31.50;45.40
54960;DHT22;40860;51.710;8.736;2023-06-24T16:54:37;31.10;45.80
54960;DHT22;40860;51.710;8.736;2023-06-24T16:58:41;30.20;47.80
54960;DHT22;40860;51.710;8.736;2023-06-24T17:03:01;29.40;48.90
54960;DHT22;40860;51.710;8.736;2023-06-24T17:07:11;29.10;49.40
54960;DHT22;40860;51.710;8.736;2023-06-24T17:11:16;29.10;50.10
54960;DHT22;40860;51.710;8.736;2023-06-24T17:15:19;29.00;50.30
54960;DHT22;40860;51.710;8.736;2023-06-24T17:19:26;28.90;51.20
54960;DHT22;40860;51.710;8.736;2023-06-24T17:23:29;28.90;50.80
54960;DHT22;40860;51.710;8.736;2023-06-24T17:27:32;28.70;50.10
54960;DHT22;40860;51.710;8.736;2023-06-24T17:31:34;28.10;50.10
54960;DHT22;40860;51.710;8.736;2023-06-24T17:35:39;27.90;50.50
54960;DHT22;40860;51.710;8.736;2023-06-24T17:39:42;27.60;50.80
54960;DHT22;40860;51.710;8.736;2023-06-24T17:43:45;27.30;51.60
54960;DHT22;40860;51.710;8.736;2023-06-24T17:47:48;27.30;52.20
54960;DHT22;40860;51.710;8.736;2023-06-24T17:51:54;27.20;51.80
54960;DHT22;40860;51.710;8.736;2023-06-24T17:55:56;27.10;52.50
54960;DHT22;40860;51.710;8.736;2023-06-24T18:00:00;27.00;52.50
54960;DHT22;40860;51.710;8.736;2023-06-24T18:04:05;27.00;52.80
54960;DHT22;40860;51.710;8.736;2023-06-24T18:08:09;26.80;52.70
54960;DHT22;40860;51.710;8.736;2023-06-24T18:12:12;26.70;54.00
54960;DHT22;40860;51.710;8.736;2023-06-24T18:16:14;26.60;54.90
54960;DHT22;40860;51.710;8.736;2023-06-24T18:20:17;26.40;54.70
54960;DHT22;40860;51.710;8.736;2023-06-24T18:24:22;26.30;54.50
54960;DHT22;40860;51.710;8.736;2023-06-24T18:28:25;26.30;54.80
54960;DHT22;40860;51.710;8.736;2023-06-24T18:32:28;26.30;54.90
54960;DHT22;40860;51.710;8.736;2023-06-24T18:36:31;26.20;54.70
54960;DHT22;40860;51.710;8.736;2023-06-24T18:40:35;26.10;54.30
54960;DHT22;40860;51.710;8.736;2023-06-24T18:44:39;26.10;55.00
54960;DHT22;40860;51.710;8.736;2023-06-24T18:48:41;26.00;54.70
54960;DHT22;40860;51.710;8.736;2023-06-24T18:52:45;25.90;55.20
54960;DHT22;40860;51.710;8.736;2023-06-24T18:56:49;25.80;55.70
54960;DHT22;40860;51.710;8.736;2023-06-24T19:00:52;25.80;55.90
54960;DHT22;40860;51.710;8.736;2023-06-24T19:04:55;25.70;56.80
54960;DHT22;40860;51.710;8.736;2023-06-24T19:08:58;25.60;57.50
54960;DHT22;40860;51.710;8.736;2023-06-24T19:13:02;25.40;57.20
54960;DHT22;40860;51.710;8.736;2023-06-24T19:17:05;25.30;57.00
54960;DHT22;40860;51.710;8.736;2023-06-24T19:21:08;25.30;56.90
54960;DHT22;40860;51.710;8.736;2023-06-24T19:25:12;25.30;57.50
54960;DHT22;40860;51.710;8.736;2023-06-24T19:29:16;25.10;59.30
54960;DHT22;40860;51.710;8.736;2023-06-24T19:37:22;24.80;60.60
54960;DHT22;40860;51.710;8.736;2023-06-24T19:41:25;24.60;63.10
54960;DHT22;40860;51.710;8.736;2023-06-24T19:45:30;24.50;62.90
54960;DHT22;40860;51.710;8.736;2023-06-24T19:49:32;24.40;64.90
54960;DHT22;40860;51.710;8.736;2023-06-24T19:53:35;24.30;63.60
54960;DHT22;40860;51.710;8.736;2023-06-24T19:57:40;24.30;64.60
54960;DHT22;40860;51.710;8.736;2023-06-24T20:01:44;24.00;67.30
54960;DHT22;40860;51.710;8.736;2023-06-24T20:05:47;23.80;68.90
54960;DHT22;40860;51.710;8.736;2023-06-24T20:09:51;23.60;69.20
54960;DHT22;40860;51.710;8.736;2023-06-24T20:13:55;23.40;70.90
54960;DHT22;40860;51.710;8.736;2023-06-24T20:18:01;23.30;71.90
54960;DHT22;40860;51.710;8.736;2023-06-24T20:22:05;23.20;72.80
54960;DHT22;40860;51.710;8.736;2023-06-24T20:26:08;23.10;73.90
54960;DHT22;40860;51.710;8.736;2023-06-24T20:30:11;23.00;74.80
54960;DHT22;40860;51.710;8.736;2023-06-24T20:34:16;22.90;75.40
54960;DHT22;40860;51.710;8.736;2023-06-24T20:38:19;22.70;77.10
54960;DHT22;40860;51.710;8.736;2023-06-24T20:42:21;22.60;77.60
54960;DHT22;40860;51.710;8.736;2023-06-24T20:46:26;22.60;78.40
54960;DHT22;40860;51.710;8.736;2023-06-24T20:50:31;22.50;79.80
54960;DHT22;40860;51.710;8.736;2023-06-24T20:54:36;22.30;80.70
54960;DHT22;40860;51.710;8.736;2023-06-24T20:58:40;22.20;81.70
54960;DHT22;40860;51.710;8.736;2023-06-24T21:02:43;22.10;82.80
54960;DHT22;40860;51.710;8.736;2023-06-24T21:06:47;22.00;83.60
54960;DHT22;40860;51.710;8.736;2023-06-24T21:10:50;21.90;84.30
54960;DHT22;40860;51.710;8.736;2023-06-24T21:14:54;21.80;85.30
54960;DHT22;40860;51.710;8.736;2023-06-24T21:18:57;21.80;84.70
54960;DHT22;40860;51.710;8.736;2023-06-24T21:23:01;21.70;86.20
54960;DHT22;40860;51.710;8.736;2023-06-24T21:27:04;21.60;86.80
54960;DHT22;40860;51.710;8.736;2023-06-24T21:31:07;21.50;87.60
54960;DHT22;40860;51.710;8.736;2023-06-24T21:35:10;21.40;87.80
54960;DHT22;40860;51.710;8.736;2023-06-24T21:39:15;21.30;87.50
54960;DHT22;40860;51.710;8.736;2023-06-24T21:43:18;21.30;89.00
54960;DHT22;40860;51.710;8.736;2023-06-24T21:47:22;21.30;88.70
54960;DHT22;40860;51.710;8.736;2023-06-24T21:51:25;21.20;89.00
54960;DHT22;40860;51.710;8.736;2023-06-24T21:55:29;21.20;88.10
54960;DHT22;40860;51.710;8.736;2023-06-24T21:59:32;21.10;89.80
54960;DHT22;40860;51.710;8.736;2023-06-24T22:03:36;21.10;90.10
54960;DHT22;40860;51.710;8.736;2023-06-24T22:07:39;21.00;90.70
54960;DHT22;40860;51.710;8.736;2023-06-24T22:11:43;20.80;90.80
54960;DHT22;40860;51.710;8.736;2023-06-24T22:15:46;20.70;91.20
54960;DHT22;40860;51.710;8.736;2023-06-24T22:19:49;20.60;91.30
54960;DHT22;40860;51.710;8.736;2023-06-24T22:23:52;20.50;91.40
54960;DHT22;40860;51.710;8.736;2023-06-24T22:27:57;20.50;91.50
54960;DHT22;40860;51.710;8.736;2023-06-24T22:32:01;20.50;91.40
54960;DHT22;40860;51.710;8.736;2023-06-24T22:36:04;20.50;91.60
54960;DHT22;40860;51.710;8.736;2023-06-24T22:40:08;20.40;91.80
54960;DHT22;40860;51.710;8.736;2023-06-24T22:44:13;20.40;91.70
54960;DHT22;40860;51.710;8.736;2023-06-24T22:48:15;20.40;91.60
54960;DHT22;40860;51.710;8.736;2023-06-24T22:52:18;20.40;92.10
54960;DHT22;40860;51.710;8.736;2023-06-24T22:56:21;20.40;91.50
54960;DHT22;40860;51.710;8.736;2023-06-24T23:00:25;20.40;91.70
54960;DHT22;40860;51.710;8.736;2023-06-24T23:04:29;20.40;91.70
54960;DHT22;40860;51.710;8.736;2023-06-24T23:08:32;20.30;92.20
54960;DHT22;40860;51.710;8.736;2023-06-24T23:12:35;20.20;92.00
54960;DHT22;40860;51.710;8.736;2023-06-24T23:16:40;20.30;91.90
54960;DHT22;40860;51.710;8.736;2023-06-24T23:20:43;20.30;91.60
54960;DHT22;40860;51.710;8.736;2023-06-24T23:24:47;20.40;91.50
54960;DHT22;40860;51.710;8.736;2023-06-24T23:28:57;20.40;91.50
54960;DHT22;40860;51.710;8.736;2023-06-24T23:33:09;20.40;91.40
54960;DHT22;40860;51.710;8.736;2023-06-24T23:37:12;20.50;91.20
54960;DHT22;40860;51.710;8.736;2023-06-24T23:41:15;20.50;91.20
54960;DHT22;40860;51.710;8.736;2023-06-24T23:45:19;20.50;90.90
54960;DHT22;40860;51.710;8.736;2023-06-24T23:49:23;20.60;90.80
54960;DHT22;40860;51.710;8.736;2023-06-24T23:53:26;20.50;90.80
54960;DHT22;40860;51.710;8.736;2023-06-24T23:57:29;20.50;90.60
